Tafi Viejo, Argentina
Current Conditions -  °F | °C
As of 7:00 AM on Saturday 25 Oct 2014 (Local Time) from SANT Reporting Station
Clear Clear  
Wind Chill: 68°   Ceiling: Unl
Heat Index: 68°   Visibility: 5mi
Dew Point: 59°   Wind: 7mph
Humidity: 73%   Direction: 320°NW
Pressure: 29.91"   Gusts: NA
Location:  26.73°S, 65.27°W
Report Text: SANT 251000Z 32006KT 8000 NSC 20/15 Q1013
Loading
Personal Weather Stations






























Interactive Weather Map
Tropical Storm Tracking
New forecast layout! Learn more

10-Day Weather Forecast

Advertisements
Track Severe Weather on mobile